sensor_id;sensor_type;location;lat;lon;timestamp;pressure;altitude;pressure_sealevel;temperature;humidity
21203;BME280;10759;51.982;9.232;2023-06-04T00:01:02;100911.84;;;10.31;70.24
21203;BME280;10759;51.982;9.232;2023-06-04T00:03:42;100908.38;;;10.26;70.67
21203;BME280;10759;51.982;9.232;2023-06-04T00:06:10;100905.03;;;10.19;70.76
21203;BME280;10759;51.982;9.232;2023-06-04T00:08:40;100876.88;;;10.04;70.57
21203;BME280;10759;51.982;9.232;2023-06-04T00:11:07;100750.34;;;9.34;69.99
21203;BME280;10759;51.982;9.232;2023-06-04T00:13:36;100895.13;;;10.21;70.03
21203;BME280;10759;51.982;9.232;2023-06-04T00:16:04;100896.38;;;10.09;71.13
21203;BME280;10759;51.982;9.232;2023-06-04T00:18:32;100886.91;;;9.96;71.11
21203;BME280;10759;51.982;9.232;2023-06-04T00:21:00;100863.88;;;9.89;70.50
21203;BME280;10759;51.982;9.232;2023-06-04T00:23:28;100894.69;;;10.05;70.41
21203;BME280;10759;51.982;9.232;2023-06-04T00:25:57;100902.69;;;10.07;70.41
21203;BME280;10759;51.982;9.232;2023-06-04T00:28:25;100899.38;;;9.97;71.13
21203;BME280;10759;51.982;9.232;2023-06-04T00:30:53;100911.84;;;9.97;70.76
21203;BME280;10759;51.982;9.232;2023-06-04T00:33:21;100911.00;;;9.96;69.55
21203;BME280;10759;51.982;9.232;2023-06-04T00:35:49;100912.00;;;9.92;69.23
21203;BME280;10759;51.982;9.232;2023-06-04T00:38:17;100873.47;;;9.65;69.84
21203;BME280;10759;51.982;9.232;2023-06-04T00:40:45;100884.97;;;9.68;71.10
21203;BME280;10759;51.982;9.232;2023-06-04T00:43:14;100903.78;;;9.65;71.49
21203;BME280;10759;51.982;9.232;2023-06-04T00:45:42;100908.22;;;9.66;71.92
21203;BME280;10759;51.982;9.232;2023-06-04T00:48:10;100909.97;;;9.67;72.30
21203;BME280;10759;51.982;9.232;2023-06-04T00:50:38;100909.38;;;9.56;73.42
21203;BME280;10759;51.982;9.232;2023-06-04T00:53:07;100904.13;;;9.52;73.97
21203;BME280;10759;51.982;9.232;2023-06-04T00:55:35;100889.25;;;9.40;73.95
21203;BME280;10759;51.982;9.232;2023-06-04T00:58:03;100903.44;;;9.43;74.29
21203;BME280;10759;51.982;9.232;2023-06-04T01:00:32;100898.03;;;9.45;74.64
21203;BME280;10759;51.982;9.232;2023-06-04T01:03:05;100903.34;;;9.48;74.67
21203;BME280;10759;51.982;9.232;2023-06-04T01:05:39;100903.25;;;9.51;74.15
21203;BME280;10759;51.982;9.232;2023-06-04T01:08:09;100883.59;;;9.52;72.94
21203;BME280;10759;51.982;9.232;2023-06-04T01:10:50;100896.53;;;9.69;71.26
21203;BME280;10759;51.982;9.232;2023-06-04T01:13:18;100895.44;;;9.78;70.93
21203;BME280;10759;51.982;9.232;2023-06-04T01:15:47;100892.22;;;9.63;70.93
21203;BME280;10759;51.982;9.232;2023-06-04T01:18:20;100907.44;;;9.61;71.64
21203;BME280;10759;51.982;9.232;2023-06-04T01:20:58;100906.81;;;9.52;72.40
21203;BME280;10759;51.982;9.232;2023-06-04T01:23:32;100881.50;;;9.29;72.73
21203;BME280;10759;51.982;9.232;2023-06-04T01:26:02;100905.59;;;9.28;73.09
21203;BME280;10759;51.982;9.232;2023-06-04T01:28:32;100897.81;;;9.18;74.30
21203;BME280;10759;51.982;9.232;2023-06-04T01:31:02;100896.91;;;9.19;73.73
21203;BME280;10759;51.982;9.232;2023-06-04T01:33:31;100891.63;;;9.16;73.85
21203;BME280;10759;51.982;9.232;2023-06-04T01:35:59;100895.97;;;9.20;73.97
21203;BME280;10759;51.982;9.232;2023-06-04T01:38:27;100889.84;;;9.15;74.72
21203;BME280;10759;51.982;9.232;2023-06-04T01:40:56;100876.84;;;9.00;74.62
21203;BME280;10759;51.982;9.232;2023-06-04T01:43:27;100893.63;;;9.07;74.53
21203;BME280;10759;51.982;9.232;2023-06-04T01:45:56;100823.47;;;8.59;74.48
21203;BME280;10759;51.982;9.232;2023-06-04T01:48:25;100893.75;;;9.02;74.84
21203;BME280;10759;51.982;9.232;2023-06-04T01:50:53;100887.53;;;9.01;73.99
21203;BME280;10759;51.982;9.232;2023-06-04T01:53:21;100890.94;;;9.08;73.96
21203;BME280;10759;51.982;9.232;2023-06-04T01:55:49;100888.31;;;9.05;74.38
21203;BME280;10759;51.982;9.232;2023-06-04T01:58:18;100886.59;;;9.02;74.38
21203;BME280;10759;51.982;9.232;2023-06-04T02:00:49;100847.28;;;8.69;74.62
21203;BME280;10759;51.982;9.232;2023-06-04T02:03:19;100854.31;;;8.73;75.48
21203;BME280;10759;51.982;9.232;2023-06-04T02:05:49;100874.56;;;8.85;74.77
21203;BME280;10759;51.982;9.232;2023-06-04T02:08:17;100879.03;;;8.82;75.22
21203;BME280;10759;51.982;9.232;2023-06-04T02:10:47;100895.00;;;8.86;74.94
21203;BME280;10759;51.982;9.232;2023-06-04T02:13:15;100889.75;;;8.81;75.36
21203;BME280;10759;51.982;9.232;2023-06-04T02:15:43;100894.47;;;8.71;75.77
21203;BME280;10759;51.982;9.232;2023-06-04T02:18:12;100890.03;;;8.69;76.19
21203;BME280;10759;51.982;9.232;2023-06-04T02:20:43;100890.03;;;8.69;76.66
21203;BME280;10759;51.982;9.232;2023-06-04T02:23:14;100885.88;;;8.57;76.98
21203;BME280;10759;51.982;9.232;2023-06-04T02:25:43;100884.31;;;8.47;77.11
21203;BME280;10759;51.982;9.232;2023-06-04T02:28:12;100895.00;;;8.47;77.85
21203;BME280;10759;51.982;9.232;2023-06-04T02:30:40;100892.41;;;8.42;78.28
21203;BME280;10759;51.982;9.232;2023-06-04T02:33:08;100897.66;;;8.47;78.49
21203;BME280;10759;51.982;9.232;2023-06-04T02:35:37;100889.66;;;8.45;78.42
21203;BME280;10759;51.982;9.232;2023-06-04T02:38:05;100902.06;;;8.48;78.42
21203;BME280;10759;51.982;9.232;2023-06-04T02:40:34;100898.66;;;8.41;79.09
21203;BME280;10759;51.982;9.232;2023-06-04T02:43:02;100897.78;;;8.41;79.20
21203;BME280;10759;51.982;9.232;2023-06-04T02:45:30;100894.53;;;8.23;78.96
21203;BME280;10759;51.982;9.232;2023-06-04T02:47:58;100902.47;;;8.26;79.14
21203;BME280;10759;51.982;9.232;2023-06-04T02:50:26;100901.63;;;8.24;78.85
21203;BME280;10759;51.982;9.232;2023-06-04T02:52:53;100858.56;;;7.98;78.87
21203;BME280;10759;51.982;9.232;2023-06-04T02:55:22;100898.91;;;8.27;79.37
21203;BME280;10759;51.982;9.232;2023-06-04T02:57:51;100905.22;;;8.23;79.34
21203;BME280;10759;51.982;9.232;2023-06-04T03:00:19;100899.91;;;8.22;78.99
21203;BME280;10759;51.982;9.232;2023-06-04T03:02:47;100879.56;;;8.14;78.82
21203;BME280;10759;51.982;9.232;2023-06-04T03:05:16;100902.72;;;8.14;79.20
21203;BME280;10759;51.982;9.232;2023-06-04T03:07:46;100900.91;;;8.16;79.24
21203;BME280;10759;51.982;9.232;2023-06-04T03:10:15;100897.38;;;8.14;79.14
21203;BME280;10759;51.982;9.232;2023-06-04T03:12:43;100896.50;;;8.13;79.34
21203;BME280;10759;51.982;9.232;2023-06-04T03:15:13;100802.47;;;7.56;79.93
21203;BME280;10759;51.982;9.232;2023-06-04T03:17:41;100877.03;;;8.08;79.93
21203;BME280;10759;51.982;9.232;2023-06-04T03:20:11;100891.16;;;8.15;80.13
21203;BME280;10759;51.982;9.232;2023-06-04T03:22:39;100897.28;;;8.18;79.65
21203;BME280;10759;51.982;9.232;2023-06-04T03:25:08;100890.22;;;8.16;80.09
21203;BME280;10759;51.982;9.232;2023-06-04T03:27:36;100825.94;;;7.83;79.86
21203;BME280;10759;51.982;9.232;2023-06-04T03:30:06;100874.22;;;8.16;78.78
21203;BME280;10759;51.982;9.232;2023-06-04T03:32:46;100897.13;;;8.26;78.68
21203;BME280;10759;51.982;9.232;2023-06-04T03:35:15;100893.56;;;8.27;78.79
21203;BME280;10759;51.982;9.232;2023-06-04T03:37:42;100894.44;;;8.28;78.82
21203;BME280;10759;51.982;9.232;2023-06-04T03:40:12;100896.28;;;8.24;78.63
21203;BME280;10759;51.982;9.232;2023-06-04T03:42:43;100897.97;;;8.30;78.88
21203;BME280;10759;51.982;9.232;2023-06-04T03:45:12;100900.59;;;8.31;79.01
21203;BME280;10759;51.982;9.232;2023-06-04T03:47:40;100905.91;;;8.34;79.56
21203;BME280;10759;51.982;9.232;2023-06-04T03:50:10;100907.63;;;8.35;78.96
21203;BME280;10759;51.982;9.232;2023-06-04T03:52:38;100883.00;;;8.21;79.68
21203;BME280;10759;51.982;9.232;2023-06-04T03:55:07;100902.66;;;8.17;79.75
21203;BME280;10759;51.982;9.232;2023-06-04T03:57:36;100898.91;;;8.27;80.16
21203;BME280;10759;51.982;9.232;2023-06-04T04:00:06;100908.50;;;8.37;80.53
21203;BME280;10759;51.982;9.232;2023-06-04T04:02:39;100910.09;;;8.48;80.08
21203;BME280;10759;51.982;9.232;2023-06-04T04:05:13;100907.28;;;8.54;79.90
21203;BME280;10759;51.982;9.232;2023-06-04T04:07:45;100907.13;;;8.62;80.13
21203;BME280;10759;51.982;9.232;2023-06-04T04:10:16;100917.59;;;8.72;80.06
21203;BME280;10759;51.982;9.232;2023-06-04T04:12:44;100910.16;;;8.87;80.22
21203;BME280;10759;51.982;9.232;2023-06-04T04:15:13;100913.09;;;9.13;79.72
21203;BME280;10759;51.982;9.232;2023-06-04T04:17:42;100919.59;;;9.40;79.42
21203;BME280;10759;51.982;9.232;2023-06-04T04:20:11;100916.88;;;9.76;77.83
21203;BME280;10759;51.982;9.232;2023-06-04T04:22:47;100922.19;;;10.12;75.70
21203;BME280;10759;51.982;9.232;2023-06-04T04:25:19;100903.81;;;10.31;74.45
21203;BME280;10759;51.982;9.232;2023-06-04T04:27:46;100890.66;;;10.22;73.54
21203;BME280;10759;51.982;9.232;2023-06-04T04:30:15;100923.97;;;10.44;73.72
21203;BME280;10759;51.982;9.232;2023-06-04T04:32:46;100915.13;;;10.41;72.31
21203;BME280;10759;51.982;9.232;2023-06-04T04:35:22;100896.84;;;10.57;71.71
21203;BME280;10759;51.982;9.232;2023-06-04T04:37:55;100919.13;;;11.45;68.81
21203;BME280;10759;51.982;9.232;2023-06-04T04:40:24;100926.69;;;11.87;65.94
21203;BME280;10759;51.982;9.232;2023-06-04T04:42:55;100925.53;;;12.19;64.35
21203;BME280;10759;51.982;9.232;2023-06-04T04:45:23;100924.88;;;11.86;64.96
21203;BME280;10759;51.982;9.232;2023-06-04T04:47:54;100917.25;;;12.00;63.35
21203;BME280;10759;51.982;9.232;2023-06-04T04:50:23;100921.00;;;12.44;62.96
21203;BME280;10759;51.982;9.232;2023-06-04T04:52:51;100875.94;;;12.04;61.83
21203;BME280;10759;51.982;9.232;2023-06-04T04:55:20;100929.19;;;12.88;59.44
21203;BME280;10759;51.982;9.232;2023-06-04T04:57:50;100907.81;;;13.31;57.11
21203;BME280;10759;51.982;9.232;2023-06-04T05:00:19;100881.81;;;13.52;54.88
21203;BME280;10759;51.982;9.232;2023-06-04T05:02:50;100833.56;;;13.68;53.44
21203;BME280;10759;51.982;9.232;2023-06-04T05:05:18;100923.13;;;13.07;57.89
21203;BME280;10759;51.982;9.232;2023-06-04T05:07:48;100919.78;;;12.77;59.69
21203;BME280;10759;51.982;9.232;2023-06-04T05:10:18;100931.09;;;13.32;57.36
21203;BME280;10759;51.982;9.232;2023-06-04T05:12:54;100909.44;;;13.57;54.67
21203;BME280;10759;51.982;9.232;2023-06-04T05:15:27;100858.28;;;13.13;54.35
21203;BME280;10759;51.982;9.232;2023-06-04T05:17:57;100927.66;;;13.50;57.64
21203;BME280;10759;51.982;9.232;2023-06-04T05:20:30;100918.47;;;12.16;61.83
21203;BME280;10759;51.982;9.232;2023-06-04T05:22:59;100917.56;;;12.41;63.95
21203;BME280;10759;51.982;9.232;2023-06-04T05:25:29;100914.91;;;12.16;64.22
21203;BME280;10759;51.982;9.232;2023-06-04T05:28:01;100934.31;;;12.73;61.40
21203;BME280;10759;51.982;9.232;2023-06-04T05:30:29;100932.19;;;13.04;59.92
21203;BME280;10759;51.982;9.232;2023-06-04T05:32:58;100914.31;;;13.02;57.86
21203;BME280;10759;51.982;9.232;2023-06-04T05:35:27;100931.19;;;13.29;57.29
21203;BME280;10759;51.982;9.232;2023-06-04T05:37:55;100913.25;;;13.29;57.99
21203;BME280;10759;51.982;9.232;2023-06-04T05:40:27;100930.00;;;13.36;56.87
21203;BME280;10759;51.982;9.232;2023-06-04T05:42:55;100915.56;;;13.39;56.39
21203;BME280;10759;51.982;9.232;2023-06-04T05:45:24;100935.06;;;13.66;55.51
21203;BME280;10759;51.982;9.232;2023-06-04T05:47:53;100932.59;;;13.61;55.36
21203;BME280;10759;51.982;9.232;2023-06-04T05:50:25;100936.88;;;13.87;55.77
21203;BME280;10759;51.982;9.232;2023-06-04T05:52:53;100911.41;;;13.94;57.14
21203;BME280;10759;51.982;9.232;2023-06-04T05:55:22;100910.47;;;13.53;56.00
21203;BME280;10759;51.982;9.232;2023-06-04T05:57:50;100919.72;;;13.24;57.66
21203;BME280;10759;51.982;9.232;2023-06-04T06:00:19;100907.88;;;13.51;55.81
21203;BME280;10759;51.982;9.232;2023-06-04T06:02:50;100925.34;;;13.84;54.59
21203;BME280;10759;51.982;9.232;2023-06-04T06:05:39;100931.25;;;13.71;56.13
21203;BME280;10759;51.982;9.232;2023-06-04T06:08:07;100931.31;;;13.70;56.84
21203;BME280;10759;51.982;9.232;2023-06-04T06:10:35;100915.16;;;13.70;55.15
21203;BME280;10759;51.982;9.232;2023-06-04T06:13:04;100929.25;;;13.97;56.37
21203;BME280;10759;51.982;9.232;2023-06-04T06:15:32;100939.94;;;13.78;54.50
21203;BME280;10759;51.982;9.232;2023-06-04T06:18:02;100912.22;;;14.17;55.31
21203;BME280;10759;51.982;9.232;2023-06-04T06:20:30;100918.91;;;14.08;55.07
21203;BME280;10759;51.982;9.232;2023-06-04T06:23:05;100943.09;;;14.30;58.81
21203;BME280;10759;51.982;9.232;2023-06-04T06:25:35;100926.00;;;14.50;59.60
21203;BME280;10759;51.982;9.232;2023-06-04T06:28:10;100929.72;;;14.68;58.15
21203;BME280;10759;51.982;9.232;2023-06-04T06:30:38;100948.41;;;14.92;52.24
21203;BME280;10759;51.982;9.232;2023-06-04T06:33:07;100925.06;;;14.91;53.47
21203;BME280;10759;51.982;9.232;2023-06-04T06:35:35;100952.59;;;15.35;58.88
21203;BME280;10759;51.982;9.232;2023-06-04T06:38:03;100958.09;;;15.34;51.19
21203;BME280;10759;51.982;9.232;2023-06-04T06:40:31;100960.75;;;15.72;48.65
21203;BME280;10759;51.982;9.232;2023-06-04T06:42:59;100950.13;;;15.86;47.41
21203;BME280;10759;51.982;9.232;2023-06-04T06:45:27;100927.38;;;15.36;46.22
21203;BME280;10759;51.982;9.232;2023-06-04T06:47:55;100912.44;;;15.10;48.41
21203;BME280;10759;51.982;9.232;2023-06-04T06:50:24;100976.81;;;15.75;48.69
21203;BME280;10759;51.982;9.232;2023-06-04T06:52:52;100934.63;;;15.53;47.50
21203;BME280;10759;51.982;9.232;2023-06-04T06:55:20;100949.16;;;16.04;48.40
21203;BME280;10759;51.982;9.232;2023-06-04T06:57:48;100966.66;;;16.49;46.99
21203;BME280;10759;51.982;9.232;2023-06-04T07:00:16;100965.13;;;16.44;46.23
21203;BME280;10759;51.982;9.232;2023-06-04T07:02:45;100972.78;;;16.01;46.59
21203;BME280;10759;51.982;9.232;2023-06-04T07:05:14;100947.84;;;16.13;45.58
21203;BME280;10759;51.982;9.232;2023-06-04T07:07:45;100966.75;;;16.30;47.55
21203;BME280;10759;51.982;9.232;2023-06-04T07:10:13;100970.97;;;16.19;45.25
21203;BME280;10759;51.982;9.232;2023-06-04T07:12:41;100860.78;;;15.89;45.31
21203;BME280;10759;51.982;9.232;2023-06-04T07:15:09;100971.16;;;17.00;45.77
21203;BME280;10759;51.982;9.232;2023-06-04T07:17:37;100980.91;;;17.35;44.91
21203;BME280;10759;51.982;9.232;2023-06-04T07:20:06;100977.41;;;17.65;45.85
21203;BME280;10759;51.982;9.232;2023-06-04T07:22:35;100970.31;;;17.47;43.44
21203;BME280;10759;51.982;9.232;2023-06-04T07:25:06;100977.41;;;17.65;43.61
21203;BME280;10759;51.982;9.232;2023-06-04T07:27:34;100956.63;;;17.96;43.28
21203;BME280;10759;51.982;9.232;2023-06-04T07:30:02;100961.44;;;18.07;44.25
21203;BME280;10759;51.982;9.232;2023-06-04T07:32:30;100962.34;;;18.36;43.39
21203;BME280;10759;51.982;9.232;2023-06-04T07:34:58;100974.81;;;18.54;43.08
21203;BME280;10759;51.982;9.232;2023-06-04T07:37:26;100974.81;;;18.69;43.30
21203;BME280;10759;51.982;9.232;2023-06-04T07:39:54;100942.03;;;18.29;42.08
21203;BME280;10759;51.982;9.232;2023-06-04T07:42:23;100953.00;;;18.70;43.81
21203;BME280;10759;51.982;9.232;2023-06-04T07:44:51;100965.16;;;19.07;43.53
21203;BME280;10759;51.982;9.232;2023-06-04T07:47:19;100965.34;;;19.04;43.06
21203;BME280;10759;51.982;9.232;2023-06-04T07:49:47;100969.59;;;19.23;40.21
21203;BME280;10759;51.982;9.232;2023-06-04T07:52:28;100972.28;;;19.37;41.72
21203;BME280;10759;51.982;9.232;2023-06-04T07:54:56;100958.88;;;18.93;40.30
21203;BME280;10759;51.982;9.232;2023-06-04T07:57:26;100957.19;;;19.04;40.03
21203;BME280;10759;51.982;9.232;2023-06-04T07:59:54;100964.53;;;19.31;40.17
21203;BME280;10759;51.982;9.232;2023-06-04T08:02:23;100946.38;;;19.59;39.33
21203;BME280;10759;51.982;9.232;2023-06-04T08:04:51;100965.34;;;19.87;37.95
21203;BME280;10759;51.982;9.232;2023-06-04T08:07:19;100967.09;;;20.28;38.88
21203;BME280;10759;51.982;9.232;2023-06-04T08:09:47;100951.75;;;19.87;38.65
21203;BME280;10759;51.982;9.232;2023-06-04T08:12:16;100967.41;;;20.36;38.96
21203;BME280;10759;51.982;9.232;2023-06-04T08:14:45;100967.81;;;20.70;37.74
21203;BME280;10759;51.982;9.232;2023-06-04T08:17:13;100963.31;;;20.56;37.54
21203;BME280;10759;51.982;9.232;2023-06-04T08:19:41;100961.59;;;20.55;37.70
21203;BME280;10759;51.982;9.232;2023-06-04T08:22:09;100960.19;;;20.10;37.08
21203;BME280;10759;51.982;9.232;2023-06-04T08:24:39;100957.41;;;20.50;37.01
21203;BME280;10759;51.982;9.232;2023-06-04T08:27:07;100919.91;;;20.02;36.16
21203;BME280;10759;51.982;9.232;2023-06-04T08:29:35;100964.84;;;20.48;34.55
21203;BME280;10759;51.982;9.232;2023-06-04T08:32:05;100967.50;;;20.22;35.41
21203;BME280;10759;51.982;9.232;2023-06-04T08:34:34;100968.19;;;20.26;34.88
21203;BME280;10759;51.982;9.232;2023-06-04T08:37:02;100975.97;;;20.70;34.55
21203;BME280;10759;51.982;9.232;2023-06-04T08:39:30;100669.44;;;19.16;35.10
21203;BME280;10759;51.982;9.232;2023-06-04T08:42:01;100980.16;;;21.26;33.94
21203;BME280;10759;51.982;9.232;2023-06-04T08:44:31;100977.56;;;21.11;33.88
21203;BME280;10759;51.982;9.232;2023-06-04T08:47:02;100951.72;;;20.40;33.75
21203;BME280;10759;51.982;9.232;2023-06-04T08:49:34;100974.84;;;20.98;33.67
21203;BME280;10759;51.982;9.232;2023-06-04T08:52:03;100985.16;;;21.32;34.76
21203;BME280;10759;51.982;9.232;2023-06-04T08:54:32;100965.69;;;19.95;32.83
21203;BME280;10759;51.982;9.232;2023-06-04T08:57:01;100975.75;;;20.73;35.01
21203;BME280;10759;51.982;9.232;2023-06-04T08:59:29;100971.69;;;20.92;32.83
21203;BME280;10759;51.982;9.232;2023-06-04T09:01:58;100983.69;;;21.02;32.43
21203;BME280;10759;51.982;9.232;2023-06-04T09:04:26;100973.56;;;20.78;33.79
21203;BME280;10759;51.982;9.232;2023-06-04T09:07:00;100979.63;;;21.20;33.36
21203;BME280;10759;51.982;9.232;2023-06-04T09:09:29;100973.94;;;21.23;33.52
21203;BME280;10759;51.982;9.232;2023-06-04T09:12:01;100990.28;;;21.36;33.01
21203;BME280;10759;51.982;9.232;2023-06-04T09:14:31;100981.09;;;21.50;32.02
21203;BME280;10759;51.982;9.232;2023-06-04T09:16:59;100985.63;;;21.62;32.68
21203;BME280;10759;51.982;9.232;2023-06-04T09:19:27;100987.97;;;21.80;32.56
21203;BME280;10759;51.982;9.232;2023-06-04T09:21:58;100989.19;;;21.52;31.96
21203;BME280;10759;51.982;9.232;2023-06-04T09:24:38;100994.56;;;21.15;31.94
21203;BME280;10759;51.982;9.232;2023-06-04T09:27:11;100990.28;;;21.49;32.64
21203;BME280;10759;51.982;9.232;2023-06-04T09:29:39;100990.41;;;21.72;31.58
21203;BME280;10759;51.982;9.232;2023-06-04T09:32:07;100984.50;;;21.28;31.92
21203;BME280;10759;51.982;9.232;2023-06-04T09:34:35;100991.66;;;21.55;32.64
21203;BME280;10759;51.982;9.232;2023-06-04T09:37:14;100988.38;;;21.86;31.76
21203;BME280;10759;51.982;9.232;2023-06-04T09:39:42;100987.34;;;21.76;31.47
21203;BME280;10759;51.982;9.232;2023-06-04T09:42:10;100982.34;;;21.94;33.54
21203;BME280;10759;51.982;9.232;2023-06-04T09:44:48;100977.91;;;20.94;32.53
21203;BME280;10759;51.982;9.232;2023-06-04T09:47:16;100985.03;;;21.46;30.86
21203;BME280;10759;51.982;9.232;2023-06-04T09:49:44;100892.25;;;21.35;31.30
21203;BME280;10759;51.982;9.232;2023-06-04T09:52:14;100984.38;;;22.03;30.33
21203;BME280;10759;51.982;9.232;2023-06-04T09:54:42;100980.22;;;21.98;30.28
21203;BME280;10759;51.982;9.232;2023-06-04T09:57:14;100974.31;;;21.56;31.92
21203;BME280;10759;51.982;9.232;2023-06-04T09:59:45;100972.13;;;21.85;32.50
21203;BME280;10759;51.982;9.232;2023-06-04T10:02:18;100946.69;;;21.23;31.87
21203;BME280;10759;51.982;9.232;2023-06-04T10:04:53;100975.09;;;21.82;32.35
21203;BME280;10759;51.982;9.232;2023-06-04T10:07:25;100950.94;;;21.64;31.02
21203;BME280;10759;51.982;9.232;2023-06-04T10:09:53;100972.38;;;22.17;31.35
21203;BME280;10759;51.982;9.232;2023-06-04T10:12:25;100965.88;;;22.31;30.58
21203;BME280;10759;51.982;9.232;2023-06-04T10:14:56;100971.69;;;22.26;31.37
21203;BME280;10759;51.982;9.232;2023-06-04T10:17:27;100972.59;;;22.38;31.49
21203;BME280;10759;51.982;9.232;2023-06-04T10:19:58;100968.00;;;22.03;29.78
21203;BME280;10759;51.982;9.232;2023-06-04T10:22:30;100969.34;;;21.74;29.22
21203;BME280;10759;51.982;9.232;2023-06-04T10:24:58;100937.69;;;21.95;29.40
21203;BME280;10759;51.982;9.232;2023-06-04T10:27:26;100967.19;;;21.90;29.82
21203;BME280;10759;51.982;9.232;2023-06-04T10:29:55;100970.50;;;21.82;28.83
21203;BME280;10759;51.982;9.232;2023-06-04T10:32:26;100967.53;;;21.85;31.15
21203;BME280;10759;51.982;9.232;2023-06-04T10:34:54;100965.78;;;22.08;31.90
21203;BME280;10759;51.982;9.232;2023-06-04T10:37:24;100976.72;;;21.84;29.70
21203;BME280;10759;51.982;9.232;2023-06-04T10:39:55;100971.03;;;21.63;30.44
21203;BME280;10759;51.982;9.232;2023-06-04T10:42:23;100969.78;;;21.31;30.22
21203;BME280;10759;51.982;9.232;2023-06-04T10:44:52;100961.72;;;21.42;29.37
21203;BME280;10759;51.982;9.232;2023-06-04T10:47:25;100924.34;;;21.18;29.61
21203;BME280;10759;51.982;9.232;2023-06-04T10:49:54;100969.50;;;21.59;29.44
21203;BME280;10759;51.982;9.232;2023-06-04T10:52:22;100959.97;;;21.41;31.27
21203;BME280;10759;51.982;9.232;2023-06-04T10:54:50;100965.56;;;21.63;29.28
21203;BME280;10759;51.982;9.232;2023-06-04T10:57:21;100968.59;;;21.72;29.98
21203;BME280;10759;51.982;9.232;2023-06-04T10:59:55;100961.38;;;21.95;28.84
21203;BME280;10759;51.982;9.232;2023-06-04T11:02:24;100921.69;;;21.42;29.64
21203;BME280;10759;51.982;9.232;2023-06-04T11:05:00;100971.34;;;21.83;29.93
21203;BME280;10759;51.982;9.232;2023-06-04T11:07:42;100962.16;;;21.49;30.44
21203;BME280;10759;51.982;9.232;2023-06-04T11:10:12;100961.50;;;21.45;30.18
21203;BME280;10759;51.982;9.232;2023-06-04T11:12:43;100964.16;;;21.08;30.01
21203;BME280;10759;51.982;9.232;2023-06-04T11:15:11;100963.75;;;20.89;29.20
21203;BME280;10759;51.982;9.232;2023-06-04T11:17:49;100947.59;;;21.11;29.24
21203;BME280;10759;51.982;9.232;2023-06-04T11:20:18;100943.56;;;21.04;30.04
21203;BME280;10759;51.982;9.232;2023-06-04T11:22:51;100959.31;;;21.37;29.31
21203;BME280;10759;51.982;9.232;2023-06-04T11:25:20;100933.66;;;21.03;30.07
21203;BME280;10759;51.982;9.232;2023-06-04T11:27:52;100962.09;;;21.61;29.89
21203;BME280;10759;51.982;9.232;2023-06-04T11:30:20;100952.06;;;21.97;29.95
21203;BME280;10759;51.982;9.232;2023-06-04T11:32:48;100960.84;;;22.14;27.47
21203;BME280;10759;51.982;9.232;2023-06-04T11:35:16;100930.41;;;21.48;28.75
21203;BME280;10759;51.982;9.232;2023-06-04T11:37:53;100943.94;;;22.08;30.20
21203;BME280;10759;51.982;9.232;2023-06-04T11:40:21;100932.44;;;21.81;28.88
21203;BME280;10759;51.982;9.232;2023-06-04T11:42:50;100948.56;;;21.60;28.38
21203;BME280;10759;51.982;9.232;2023-06-04T11:45:19;100946.19;;;21.55;30.30
21203;BME280;10759;51.982;9.232;2023-06-04T11:47:48;100891.75;;;20.93;31.38
21203;BME280;10759;51.982;9.232;2023-06-04T11:50:17;100891.94;;;21.39;29.43
21203;BME280;10759;51.982;9.232;2023-06-04T11:52:45;100937.22;;;21.66;29.73
21203;BME280;10759;51.982;9.232;2023-06-04T11:55:15;100951.38;;;21.21;28.94
21203;BME280;10759;51.982;9.232;2023-06-04T11:57:48;100948.63;;;21.34;29.93
21203;BME280;10759;51.982;9.232;2023-06-04T12:00:18;100930.63;;;21.44;30.29
21203;BME280;10759;51.982;9.232;2023-06-04T12:02:50;100943.41;;;21.44;30.01
21203;BME280;10759;51.982;9.232;2023-06-04T12:05:21;100949.53;;;21.83;29.63
21203;BME280;10759;51.982;9.232;2023-06-04T12:07:51;100943.75;;;21.63;28.82
21203;BME280;10759;51.982;9.232;2023-06-04T12:10:19;100950.94;;;21.64;29.23
21203;BME280;10759;51.982;9.232;2023-06-04T12:12:54;100933.19;;;21.22;31.11
21203;BME280;10759;51.982;9.232;2023-06-04T12:15:23;100909.59;;;20.97;29.95
21203;BME280;10759;51.982;9.232;2023-06-04T12:17:52;100923.84;;;21.50;30.25
21203;BME280;10759;51.982;9.232;2023-06-04T12:20:32;100854.34;;;21.32;29.77
21203;BME280;10759;51.982;9.232;2023-06-04T12:23:00;100924.84;;;21.49;30.38
21203;BME280;10759;51.982;9.232;2023-06-04T12:25:29;100919.78;;;21.80;31.20
21203;BME280;10759;51.982;9.232;2023-06-04T12:27:57;100927.41;;;21.99;31.63
21203;BME280;10759;51.982;9.232;2023-06-04T12:30:36;100924.78;;;21.97;30.16
21203;BME280;10759;51.982;9.232;2023-06-04T12:33:04;100917.25;;;22.01;30.97
21203;BME280;10759;51.982;9.232;2023-06-04T12:35:33;100912.66;;;22.25;31.69
21203;BME280;10759;51.982;9.232;2023-06-04T12:38:02;100932.53;;;22.15;30.72
21203;BME280;10759;51.982;9.232;2023-06-04T12:40:31;100924.25;;;21.81;32.12
21203;BME280;10759;51.982;9.232;2023-06-04T12:42:59;100921.63;;;22.15;31.44
21203;BME280;10759;51.982;9.232;2023-06-04T12:45:27;100924.78;;;22.21;30.22
21203;BME280;10759;51.982;9.232;2023-06-04T12:47:57;100917.75;;;22.30;30.10
21203;BME280;10759;51.982;9.232;2023-06-04T12:50:25;100918.69;;;22.18;30.52
21203;BME280;10759;51.982;9.232;2023-06-04T12:52:52;100930.13;;;22.23;31.40
21203;BME280;10759;51.982;9.232;2023-06-04T12:55:20;100847.09;;;21.07;31.33
21203;BME280;10759;51.982;9.232;2023-06-04T12:57:48;100925.66;;;21.98;29.47
21203;BME280;10759;51.982;9.232;2023-06-04T13:00:16;100847.66;;;21.60;30.07
21203;BME280;10759;51.982;9.232;2023-06-04T13:02:44;100919.44;;;22.20;30.08
21203;BME280;10759;51.982;9.232;2023-06-04T13:05:14;100910.06;;;22.35;30.63